X  Close Metar Aviation Weather Data     LZPP Piešťany Airport
Temperature
29°C Temperature
17°C Dewpoint
48% Humidity



Wind
19 KM/H
12 MPH
5 M/S
10 KTS



190°
S
Current Conditions

Clear Clear
Pressure 1016.93 (hPa) - 30.03 (inHg)
Visibility 6 (mile) - 9.7 (km)
Airport
Airport-code LZPP

Location: Piešťany Airport
Distance: 31 (km)

Metar:
LZPP 181230Z 19010KT 150V220 CAVOK 29/17 Q1017

Time: 18-06-2024 14:30 CEST